SJO weather

Juan Santamaria International Airport
San Jose, Alajuela, Costa Rica

Public forecast

Using degrees Celsius for public forecast. Weather courtesy of forecast.io.

Current aviation weather report (METAR) for Juan Santamaria International Airport

Retrieved 2019/11/15 02:00 UTC (9 minutes ago):

MROC 150200Z 00000KT 9999 -RA FEW025 BKN100 21/20 A3007 NOSIG

Aviation forecast (TAF) for Juan Santamaria International Airport

Retrieved 2019-11-15 00:56 UTC (1 hour ago):

TAF MROC 142300Z 1500/1524 VRB03KT 9999 FEW030 SCT120 TX28/1518Z TN19/1511Z TEMPO 1500/1503 RA BKN020 TEMPO 1505/1512 05006KT BCFG BECMG 1516/1518 24009KT BECMG 1520/1522 TSRA FEW15CB BKN030